Time;durP1;ratioP1;P1;durP2;ratioP2;P2;SDS_P1;SDS_P2;PMS_P1;PMS_P2;Temp;Humidity;BMP_temperature;BMP_pressure;BME280_temperature;BME280_humidity;BME280_pressure;Samples;Min_cycle;Max_cycle;Signal;HPM_P1;HPM_P2
2024/02/12 00:00:37;;;;;;;;;;;;;;;7.99;72.33;96272.69;5087403;28;20385;-58
2024/02/12 00:03:26;;;;;;;;;;;;;;;8.08;72.37;96269.88;5089133;28;19970;-57
2024/02/12 00:06:15;;;;;;;;;;;;;;;7.94;72.64;96275.59;5088760;28;20010;-57
2024/02/12 00:09:05;;;;;;;;;;;;;;;8.00;72.14;96270.78;5088059;28;20386;-57
2024/02/12 00:11:54;;;;;;;;;;;;;;;8.04;72.51;96279.78;5093063;28;19951;-57
2024/02/12 00:14:45;;;;;;;;;;;;;;;8.01;72.20;96277.75;5086065;28;20329;-56
2024/02/12 00:17:36;;;;;;;;;;;;;;;7.95;71.76;96277.19;5088161;28;19926;-58
2024/02/12 00:20:26;;;;;;;;;;;;;;;7.94;72.15;96281.00;5092671;28;19919;-57
2024/02/12 00:23:40;;;;;;;;;;;;;;;7.94;72.00;96283.72;5097775;28;20444;-57
2024/02/12 00:26:29;;;;;;;;;;;;;;;7.86;72.42;96282.66;5091409;28;19959;-57
2024/02/12 00:29:19;;;;;;;;;;;;;;;7.93;72.04;96287.53;5086885;28;20446;-57
2024/02/12 00:32:09;;;;;;;;;;;;;;;7.90;71.96;96285.50;5088729;28;19938;-57
2024/02/12 00:34:58;;;;;;;;;;;;;;;7.97;72.03;96291.16;5083617;28;19928;-57
2024/02/12 00:37:46;;;;;;;;;;;;;;;7.96;71.79;96294.19;5088048;28;19932;-59
2024/02/12 00:40:35;;;;;;;;;;;;;;;8.06;71.62;96293.78;5070565;28;20036;-56
2024/02/12 00:43:26;;;;;;;;;;;;;;;7.98;71.66;96291.94;5089392;28;20002;-56
2024/02/12 00:46:15;;;;;;;;;;;;;;;8.14;71.31;96295.59;5080484;28;20025;-57
2024/02/12 00:49:03;;;;;;;;;;;;;;;8.20;70.59;96291.53;5086553;28;19924;-57
2024/02/12 00:51:51;;;;;;;;;;;;;;;8.13;70.46;96294.00;5090766;28;19924;-57
2024/02/12 00:54:42;;;;;;;;;;;;;;;8.16;70.42;96290.63;5087708;28;19931;-57
2024/02/12 00:57:30;;;;;;;;;;;;;;;8.10;71.10;96297.41;5092628;28;20326;-57
2024/02/12 01:00:25;;;;;;;;;;;;;;;8.15;71.37;96297.19;5086608;28;19927;-57
2024/02/12 01:03:14;;;;;;;;;;;;;;;8.16;70.58;96300.69;5086253;28;20483;-57
2024/02/12 01:06:04;;;;;;;;;;;;;;;8.19;70.41;96297.28;5080908;28;19931;-59
2024/02/12 01:08:52;;;;;;;;;;;;;;;8.06;69.84;96299.19;5086400;28;20368;-58
2024/02/12 01:11:42;;;;;;;;;;;;;;;8.12;70.53;96298.63;5086347;28;19919;-57
2024/02/12 01:14:30;;;;;;;;;;;;;;;8.18;70.36;96301.91;5090365;28;20377;-56
2024/02/12 01:17:21;;;;;;;;;;;;;;;8.25;70.17;96301.34;5090947;28;19920;-57
2024/02/12 01:20:11;;;;;;;;;;;;;;;8.20;69.96;96305.06;5088079;28;19932;-57
2024/02/12 01:22:59;;;;;;;;;;;;;;;8.13;70.80;96300.19;5092076;28;20408;-57
2024/02/12 01:25:50;;;;;;;;;;;;;;;8.14;70.85;96301.00;5091869;28;19927;-57
2024/02/12 01:28:38;;;;;;;;;;;;;;;8.15;70.56;96302.59;5094231;28;20284;-57
2024/02/12 01:31:26;;;;;;;;;;;;;;;8.15;70.46;96299.88;5094902;28;19920;-57
2024/02/12 01:34:15;;;;;;;;;;;;;;;8.11;70.98;96312.50;5096685;28;19924;-57
2024/02/12 01:37:04;;;;;;;;;;;;;;;8.13;70.94;96307.53;5088840;28;19928;-57
2024/02/12 01:39:52;;;;;;;;;;;;;;;8.17;70.86;96305.75;5090931;28;19939;-58
2024/02/12 01:42:42;;;;;;;;;;;;;;;8.19;70.47;96303.47;5091009;28;19927;-57
2024/02/12 01:45:31;;;;;;;;;;;;;;;8.16;70.83;96298.75;5094522;28;19920;-57
2024/02/12 01:48:19;;;;;;;;;;;;;;;8.22;71.33;96308.22;5090160;28;20444;-57
2024/02/12 01:51:09;;;;;;;;;;;;;;;8.18;70.90;96296.50;5093528;28;19920;-56
2024/02/12 01:53:59;;;;;;;;;;;;;;;8.13;71.28;96296.72;5091636;28;20331;-57
2024/02/12 01:56:47;;;;;;;;;;;;;;;8.11;70.90;96296.25;5097076;28;19924;-58
2024/02/12 01:59:35;;;;;;;;;;;;;;;8.22;70.71;96296.63;5094242;28;19920;-58
2024/02/12 02:02:24;;;;;;;;;;;;;;;8.21;70.84;96303.97;5095319;28;19920;-56
2024/02/12 02:05:15;;;;;;;;;;;;;;;8.15;71.05;96289.06;5092936;28;19931;-57
2024/02/12 02:08:05;;;;;;;;;;;;;;;8.07;71.49;96296.13;5097247;28;19942;-57
2024/02/12 02:10:54;;;;;;;;;;;;;;;8.13;71.40;96304.81;5090037;28;20168;-57
2024/02/12 02:13:43;;;;;;;;;;;;;;;8.17;71.06;96300.34;5092139;28;20379;-57
2024/02/12 02:16:36;;;;;;;;;;;;;;;8.15;71.18;96305.31;5087015;28;19931;-57
2024/02/12 02:19:26;;;;;;;;;;;;;;;8.08;71.54;96305.03;5092345;28;19931;-57
2024/02/12 02:22:15;;;;;;;;;;;;;;;8.04;71.64;96309.53;5088267;28;19924;-60
2024/02/12 02:25:06;;;;;;;;;;;;;;;8.03;71.70;96299.84;5086069;28;19920;-58
2024/02/12 02:27:54;;;;;;;;;;;;;;;7.97;72.42;96301.16;5079201;28;20018;-58
2024/02/12 02:30:42;;;;;;;;;;;;;;;8.00;72.31;96306.72;5089326;28;19931;-57
2024/02/12 02:33:35;;;;;;;;;;;;;;;8.09;71.81;96301.19;5086125;28;19982;-58
2024/02/12 02:36:24;;;;;;;;;;;;;;;8.01;72.02;96302.09;5102446;28;19920;-57
2024/02/12 02:39:11;;;;;;;;;;;;;;;8.05;72.31;96303.81;5090905;28;20392;-57
2024/02/12 02:42:05;;;;;;;;;;;;;;;8.06;71.80;96301.88;5088725;28;19973;-57
2024/02/12 02:44:55;;;;;;;;;;;;;;;8.04;72.44;96302.22;5089683;28;19931;-57
2024/02/12 02:47:44;;;;;;;;;;;;;;;8.04;72.33;96301.41;5091194;28;20460;-57
2024/02/12 02:50:33;;;;;;;;;;;;;;;7.99;72.21;96307.03;5087501;28;19924;-57
2024/02/12 02:53:21;;;;;;;;;;;;;;;7.97;71.93;96303.88;5087641;28;19943;-59
2024/02/12 02:56:09;;;;;;;;;;;;;;;7.95;72.27;96306.91;5094571;28;19919;-56
2024/02/12 02:59:00;;;;;;;;;;;;;;;7.93;72.23;96305.66;5088129;28;19954;-57
2024/02/12 03:01:48;;;;;;;;;;;;;;;7.96;72.45;96305.00;5090475;28;20007;-57
2024/02/12 03:04:38;;;;;;;;;;;;;;;7.97;72.17;96301.16;5092344;28;20261;-57
2024/02/12 03:07:26;;;;;;;;;;;;;;;7.96;72.75;96305.78;5090283;28;19955;-57
2024/02/12 03:10:14;;;;;;;;;;;;;;;7.91;72.84;96306.00;5099600;28;19942;-57
2024/02/12 03:13:04;;;;;;;;;;;;;;;8.06;72.41;96313.50;5098595;28;20552;-57
2024/02/12 03:15:54;;;;;;;;;;;;;;;8.02;72.41;96309.06;5081077;28;19920;-57
2024/02/12 03:18:45;;;;;;;;;;;;;;;7.89;72.56;96305.56;5084557;28;19971;-57
2024/02/12 03:21:34;;;;;;;;;;;;;;;7.97;72.77;96307.38;5076730;28;20274;-57
2024/02/12 03:24:22;;;;;;;;;;;;;;;7.92;72.91;96312.19;5073333;28;19920;-56
2024/02/12 03:27:10;;;;;;;;;;;;;;;7.94;73.11;96309.97;5088123;28;20285;-57
2024/02/12 03:29:58;;;;;;;;;;;;;;;7.96;72.60;96313.13;5094412;28;19956;-57
2024/02/12 03:32:47;;;;;;;;;;;;;;;8.01;72.64;96315.63;5097845;28;20053;-57
2024/02/12 03:35:35;;;;;;;;;;;;;;;7.83;72.71;96318.50;5091335;28;19924;-56
2024/02/12 03:38:24;;;;;;;;;;;;;;;7.92;73.02;96331.13;5093514;28;20412;-57
2024/02/12 03:41:18;;;;;;;;;;;;;;;7.96;72.36;96322.03;5075585;28;20072;-57
2024/02/12 03:44:06;;;;;;;;;;;;;;;7.91;72.69;96322.22;5090350;28;20363;-57
2024/02/12 03:46:55;;;;;;;;;;;;;;;7.78;72.94;96320.59;5089569;28;19978;-57
2024/02/12 04:02:07;;;;;;;;;;;;;;;7.88;73.62;96336.41;5094626;28;19924;-57
2024/02/12 04:04:56;;;;;;;;;;;;;;;7.76;73.53;96339.06;5095811;28;19920;-57
2024/02/12 04:07:45;;;;;;;;;;;;;;;7.83;73.22;96340.13;5090822;28;19920;-57
2024/02/12 04:10:33;;;;;;;;;;;;;;;7.90;72.78;96346.91;5090843;28;19932;-57
2024/02/12 04:13:22;;;;;;;;;;;;;;;7.81;73.04;96342.34;5070113;28;19920;-57
2024/02/12 04:16:14;;;;;;;;;;;;;;;7.81;72.73;96346.97;5081007;28;19965;-59
2024/02/12 04:19:03;;;;;;;;;;;;;;;7.88;73.49;96353.44;5088060;28;19920;-57
2024/02/12 04:21:52;;;;;;;;;;;;;;;7.85;72.85;96353.28;5073624;28;19932;-57
2024/02/12 04:24:41;;;;;;;;;;;;;;;7.85;73.19;96348.69;5085977;28;19927;-57
2024/02/12 04:27:29;;;;;;;;;;;;;;;7.81;72.99;96350.47;5090666;28;19924;-58
2024/02/12 04:30:18;;;;;;;;;;;;;;;7.82;73.22;96357.44;5089005;28;19920;-60
2024/02/12 04:33:06;;;;;;;;;;;;;;;7.87;72.90;96351.03;5087510;28;19919;-57
2024/02/12 04:35:57;;;;;;;;;;;;;;;7.89;72.16;96362.34;5093115;28;19945;-57
2024/02/12 04:38:46;;;;;;;;;;;;;;;7.78;72.83;96367.34;5087406;28;20003;-57
2024/02/12 04:41:38;;;;;;;;;;;;;;;7.84;72.84;96366.03;5084073;28;20308;-57
2024/02/12 04:44:26;;;;;;;;;;;;;;;7.87;72.43;96368.06;5087891;28;19978;-58
2024/02/12 04:47:15;;;;;;;;;;;;;;;7.93;72.54;96371.34;5084105;28;19920;-57
2024/02/12 04:50:03;;;;;;;;;;;;;;;7.87;73.01;96373.47;5086462;28;19931;-57
2024/02/12 04:52:51;;;;;;;;;;;;;;;7.95;72.82;96379.16;5083713;28;19931;-60
2024/02/12 04:55:41;;;;;;;;;;;;;;;7.83;72.73;96377.19;5085818;28;19924;-57
2024/02/12 04:58:31;;;;;;;;;;;;;;;7.90;73.17;96382.06;5089808;28;19970;-57
2024/02/12 05:01:19;;;;;;;;;;;;;;;7.86;73.36;96388.09;5087819;28;19920;-57
2024/02/12 05:04:10;;;;;;;;;;;;;;;7.89;73.45;96386.66;5087654;28;19919;-57
2024/02/12 05:06:58;;;;;;;;;;;;;;;7.92;73.89;96385.19;5090871;28;20315;-57
2024/02/12 05:09:46;;;;;;;;;;;;;;;8.00;73.40;96387.06;5090895;28;19920;-57
2024/02/12 05:12:38;;;;;;;;;;;;;;;7.96;73.40;96386.91;5084949;28;19939;-57
2024/02/12 05:15:30;;;;;;;;;;;;;;;8.10;73.17;96387.44;5089985;28;19947;-57
2024/02/12 05:24:28;;;;;;;;;;;;;;;8.41;71.88;96394.31;5072916;28;20270;-57
2024/02/12 05:27:16;;;;;;;;;;;;;;;8.39;71.79;96389.25;5095693;28;20044;-57
2024/02/12 05:30:06;;;;;;;;;;;;;;;8.44;71.79;96395.59;5089858;28;19920;-57
2024/02/12 05:32:54;;;;;;;;;;;;;;;8.44;71.81;96401.78;5089121;28;19932;-57
2024/02/12 05:35:43;;;;;;;;;;;;;;;8.42;71.76;96404.03;5094056;28;19928;-57
2024/02/12 05:38:31;;;;;;;;;;;;;;;8.40;71.80;96417.09;5095828;28;19920;-57
2024/02/12 05:41:20;;;;;;;;;;;;;;;8.50;71.73;96410.47;5086465;28;19927;-57
2024/02/12 05:44:08;;;;;;;;;;;;;;;8.55;71.85;96405.66;5089028;28;19925;-58
2024/02/12 05:46:59;;;;;;;;;;;;;;;8.62;72.25;96407.78;5091819;28;19999;-57
2024/02/12 05:49:47;;;;;;;;;;;;;;;8.55;72.98;96418.38;5089091;28;19932;-57
2024/02/12 05:52:35;;;;;;;;;;;;;;;8.73;71.99;96411.66;5089329;28;19920;-58
2024/02/12 05:55:23;;;;;;;;;;;;;;;8.70;72.42;96415.06;5092352;28;19927;-57
2024/02/12 05:58:12;;;;;;;;;;;;;;;8.63;72.27;96414.81;5095214;28;20003;-57
2024/02/12 06:01:03;;;;;;;;;;;;;;;8.65;72.86;96423.38;5082959;28;19954;-57
2024/02/12 06:03:53;;;;;;;;;;;;;;;8.57;72.77;96424.25;5084679;28;20011;-57
2024/02/12 06:06:41;;;;;;;;;;;;;;;8.65;72.39;96429.59;5081266;28;19932;-58
2024/02/12 06:09:30;;;;;;;;;;;;;;;8.62;72.21;96434.88;5088772;28;19924;-58
2024/02/12 06:12:18;;;;;;;;;;;;;;;8.62;72.39;96435.66;5090845;28;19920;-57
2024/02/12 06:15:06;;;;;;;;;;;;;;;8.49;73.16;96435.97;5088345;28;19920;-57
2024/02/12 06:17:54;;;;;;;;;;;;;;;8.58;72.73;96442.88;5085524;28;19919;-57
2024/02/12 06:20:44;;;;;;;;;;;;;;;8.52;73.10;96446.13;5083219;28;19924;-57
2024/02/12 06:23:32;;;;;;;;;;;;;;;8.45;72.92;96451.28;5086972;28;20048;-58
2024/02/12 06:26:20;;;;;;;;;;;;;;;8.51;73.50;96449.94;5082574;28;19927;-57
2024/02/12 06:29:10;;;;;;;;;;;;;;;8.48;73.08;96466.88;5086448;28;19955;-58
2024/02/12 06:31:59;;;;;;;;;;;;;;;8.65;72.41;96453.16;5088455;28;19927;-57
2024/02/12 06:34:50;;;;;;;;;;;;;;;8.72;72.07;96456.09;5084502;28;19931;-57
2024/02/12 06:37:40;;;;;;;;;;;;;;;8.63;72.35;96458.91;5085927;28;19920;-58
2024/02/12 06:40:28;;;;;;;;;;;;;;;8.66;72.90;96466.34;5088967;28;19928;-57
2024/02/12 06:43:16;;;;;;;;;;;;;;;8.83;71.69;96468.09;5086507;28;20007;-57
2024/02/12 06:46:04;;;;;;;;;;;;;;;8.85;72.42;96475.91;5088472;28;20352;-59
2024/02/12 06:48:52;;;;;;;;;;;;;;;8.73;72.42;96479.34;5090765;28;20415;-57
2024/02/12 06:51:41;;;;;;;;;;;;;;;8.77;71.92;96474.84;5088373;28;19939;-58
2024/02/12 06:54:30;;;;;;;;;;;;;;;8.81;72.31;96473.06;5086007;28;19924;-56
2024/02/12 06:57:18;;;;;;;;;;;;;;;8.85;72.24;96481.31;5087849;28;20084;-57
2024/02/12 07:00:07;;;;;;;;;;;;;;;8.84;72.18;96485.13;5085769;28;20384;-58
2024/02/12 07:02:55;;;;;;;;;;;;;;;8.77;72.62;96491.09;5085687;28;19931;-57
2024/02/12 07:05:47;;;;;;;;;;;;;;;8.65;73.26;96494.56;5084295;28;19924;-57
2024/02/12 07:08:37;;;;;;;;;;;;;;;8.81;73.92;96494.72;5082322;28;19951;-58
2024/02/12 07:11:27;;;;;;;;;;;;;;;8.69;74.36;96497.41;5086022;28;19932;-57
2024/02/12 07:14:15;;;;;;;;;;;;;;;8.64;74.81;96503.03;5081514;28;19928;-59
2024/02/12 07:17:05;;;;;;;;;;;;;;;8.61;74.26;96509.09;5088664;28;19939;-58
2024/02/12 07:19:53;;;;;;;;;;;;;;;8.72;74.36;96509.47;5087789;28;20427;-57
2024/02/12 07:22:42;;;;;;;;;;;;;;;8.74;74.32;96513.44;5070045;28;19934;-58
2024/02/12 07:25:30;;;;;;;;;;;;;;;8.72;74.02;96510.25;5086641;28;19993;-58
2024/02/12 07:28:21;;;;;;;;;;;;;;;8.81;73.60;96521.81;5081050;28;19933;-57
2024/02/12 07:31:09;;;;;;;;;;;;;;;8.81;73.67;96529.16;5081261;28;19927;-58
2024/02/12 07:34:00;;;;;;;;;;;;;;;8.78;73.25;96524.38;5083239;28;19920;-58
2024/02/12 07:36:48;;;;;;;;;;;;;;;8.80;73.45;96533.78;5086267;28;19924;-58
2024/02/12 07:39:38;;;;;;;;;;;;;;;8.89;72.90;96531.78;5086583;28;19920;-57
2024/02/12 07:42:26;;;;;;;;;;;;;;;8.72;73.12;96537.34;5085457;28;19920;-57
2024/02/12 07:45:19;;;;;;;;;;;;;;;8.78;73.29;96546.84;5085353;28;20221;-57
2024/02/12 07:48:08;;;;;;;;;;;;;;;8.71;72.92;96538.47;5087468;28;20003;-57
2024/02/12 07:50:57;;;;;;;;;;;;;;;8.77;73.16;96550.66;5089534;28;19932;-57
2024/02/12 07:53:46;;;;;;;;;;;;;;;8.82;73.09;96547.75;5084439;28;19920;-57
2024/02/12 07:56:34;;;;;;;;;;;;;;;8.87;72.96;96552.19;5086959;28;19967;-57
2024/02/12 07:59:23;;;;;;;;;;;;;;;8.79;73.35;96550.31;5090341;28;20390;-57
2024/02/12 08:02:12;;;;;;;;;;;;;;;8.91;72.78;96553.91;5086483;28;19920;-58
2024/02/12 08:05:04;;;;;;;;;;;;;;;8.90;73.16;96565.84;5088457;28;19940;-57
2024/02/12 08:07:52;;;;;;;;;;;;;;;8.96;72.36;96569.16;5089430;28;20392;-58
2024/02/12 08:10:49;;;;;;;;;;;;;;;9.02;72.48;96572.44;5086690;28;19939;-58
2024/02/12 08:13:38;;;;;;;;;;;;;;;8.88;72.80;96568.09;5082888;28;19931;-57
2024/02/12 08:16:26;;;;;;;;;;;;;;;8.91;72.71;96583.69;5084984;28;19920;-58
2024/02/12 08:19:18;;;;;;;;;;;;;;;8.93;72.51;96581.44;5084890;28;20460;-58
2024/02/12 08:22:06;;;;;;;;;;;;;;;8.96;72.40;96576.50;5085948;28;19920;-58
2024/02/12 08:24:54;;;;;;;;;;;;;;;8.89;72.27;96587.84;5086449;28;19927;-59
2024/02/12 08:27:43;;;;;;;;;;;;;;;8.93;72.60;96586.06;5085960;28;20373;-58
2024/02/12 08:30:31;;;;;;;;;;;;;;;8.92;72.46;96589.88;5080839;28;19932;-58
2024/02/12 08:33:20;;;;;;;;;;;;;;;8.86;72.83;96597.44;5069997;28;19920;-58
2024/02/12 08:36:09;;;;;;;;;;;;;;;8.99;72.50;96608.31;5078202;28;19945;-58
2024/02/12 08:38:57;;;;;;;;;;;;;;;8.98;72.23;96609.44;5083796;28;20316;-63
2024/02/12 08:41:46;;;;;;;;;;;;;;;8.99;72.49;96617.22;5087268;28;19940;-60
2024/02/12 08:44:34;;;;;;;;;;;;;;;8.96;72.72;96611.69;5087844;28;19927;-59
2024/02/12 08:47:22;;;;;;;;;;;;;;;8.96;73.45;96609.00;5084494;28;19927;-57
2024/02/12 08:50:10;;;;;;;;;;;;;;;9.03;73.70;96614.66;5086854;28;19920;-58
2024/02/12 08:53:01;;;;;;;;;;;;;;;9.02;72.40;96622.00;5086148;28;19927;-57
2024/02/12 08:55:51;;;;;;;;;;;;;;;9.19;71.61;96626.47;5085995;28;20357;-59
2024/02/12 08:58:40;;;;;;;;;;;;;;;9.17;71.74;96631.44;5087703;28;19955;-58
2024/02/12 09:01:28;;;;;;;;;;;;;;;9.09;71.68;96626.88;5086169;28;20318;-58
2024/02/12 09:04:16;;;;;;;;;;;;;;;9.10;71.75;96634.66;5085022;28;19988;-57
2024/02/12 09:07:05;;;;;;;;;;;;;;;9.19;71.86;96631.88;5088100;28;20019;-57
2024/02/12 09:09:55;;;;;;;;;;;;;;;9.17;71.06;96645.75;5084077;28;20392;-57
2024/02/12 09:12:44;;;;;;;;;;;;;;;9.24;70.83;96642.50;5085350;28;20426;-57
2024/02/12 09:15:39;;;;;;;;;;;;;;;9.13;70.91;96649.47;5085848;28;20366;-56
2024/02/12 09:18:30;;;;;;;;;;;;;;;9.05;70.90;96653.03;5088056;28;19927;-59
2024/02/12 09:21:19;;;;;;;;;;;;;;;9.03;71.21;96660.72;5082679;28;20478;-57
2024/02/12 09:24:07;;;;;;;;;;;;;;;9.04;70.68;96659.56;5086444;28;19943;-57
2024/02/12 09:26:57;;;;;;;;;;;;;;;8.95;71.60;96664.25;5097674;28;19927;-57
2024/02/12 09:29:47;;;;;;;;;;;;;;;9.01;71.07;96663.75;5082646;28;19920;-57
2024/02/12 09:32:35;;;;;;;;;;;;;;;8.97;71.12;96667.44;5084927;28;20633;-57
2024/02/12 09:35:23;;;;;;;;;;;;;;;9.00;71.24;96672.19;5086879;28;19927;-58
2024/02/12 09:38:11;;;;;;;;;;;;;;;9.12;71.02;96677.69;5101271;28;19924;-57
2024/02/12 09:40:59;;;;;;;;;;;;;;;9.14;70.90;96678.13;5076121;28;19920;-58
2024/02/12 09:43:49;;;;;;;;;;;;;;;9.08;70.59;96682.19;5084331;28;19943;-57
2024/02/12 09:46:37;;;;;;;;;;;;;;;9.15;70.78;96682.44;5089201;28;19931;-59
2024/02/12 09:49:25;;;;;;;;;;;;;;;9.21;70.75;96683.03;5090925;28;19938;-57
2024/02/12 09:52:13;;;;;;;;;;;;;;;9.09;70.42;96687.25;5093039;28;20006;-56
2024/02/12 09:55:02;;;;;;;;;;;;;;;9.12;70.92;96689.31;5088794;28;19924;-57
2024/02/12 09:57:51;;;;;;;;;;;;;;;9.06;71.37;96689.84;5094178;28;19920;-57
2024/02/12 10:00:40;;;;;;;;;;;;;;;9.05;71.57;96693.66;5092205;28;20383;-57
2024/02/12 10:03:29;;;;;;;;;;;;;;;9.07;71.65;96692.22;5092546;28;19920;-57
2024/02/12 10:06:17;;;;;;;;;;;;;;;9.13;71.43;96698.25;5091189;28;19939;-56
2024/02/12 10:09:07;;;;;;;;;;;;;;;9.00;71.64;96696.56;5089824;28;19943;-57
2024/02/12 10:11:55;;;;;;;;;;;;;;;8.88;72.55;96703.50;5090694;28;20305;-56
2024/02/12 10:14:43;;;;;;;;;;;;;;;8.87;71.79;96696.50;5083328;28;19928;-58
2024/02/12 10:17:33;;;;;;;;;;;;;;;9.01;71.95;96707.09;5082895;28;19932;-59
2024/02/12 10:20:21;;;;;;;;;;;;;;;9.02;71.94;96705.97;5078553;28;19927;-58
2024/02/12 10:23:10;;;;;;;;;;;;;;;9.14;71.69;96716.06;5082808;28;19924;-57
2024/02/12 10:25:58;;;;;;;;;;;;;;;9.07;71.39;96713.13;5088627;28;20215;-56
2024/02/12 10:28:53;;;;;;;;;;;;;;;9.10;71.77;96709.72;5086273;28;19920;-57
2024/02/12 10:31:41;;;;;;;;;;;;;;;9.00;72.31;96716.34;5089235;28;19920;-57
2024/02/12 10:34:30;;;;;;;;;;;;;;;8.97;72.95;96721.63;5087231;28;19932;-57
2024/02/12 10:37:18;;;;;;;;;;;;;;;9.06;72.31;96711.53;5087417;28;20572;-56
2024/02/12 10:40:12;;;;;;;;;;;;;;;9.05;72.11;96718.03;5087258;28;20300;-56
2024/02/12 10:43:03;;;;;;;;;;;;;;;9.09;72.25;96721.69;5083256;28;19932;-60
2024/02/12 10:45:53;;;;;;;;;;;;;;;9.20;71.73;96725.59;5084519;28;20140;-56
2024/02/12 10:48:43;;;;;;;;;;;;;;;9.09;71.68;96727.09;5086315;28;20421;-57
2024/02/12 10:51:35;;;;;;;;;;;;;;;9.14;70.98;96729.63;5089008;28;19928;-56
2024/02/12 10:54:23;;;;;;;;;;;;;;;9.09;70.18;96727.91;5089451;28;20053;-56
2024/02/12 10:57:12;;;;;;;;;;;;;;;9.15;70.35;96731.19;5090140;28;19920;-57
2024/02/12 11:00:00;;;;;;;;;;;;;;;8.97;70.59;96732.47;5089218;28;19920;-57
2024/02/12 11:02:50;;;;;;;;;;;;;;;9.03;70.42;96731.94;5087703;28;19927;-58
2024/02/12 11:05:41;;;;;;;;;;;;;;;9.02;69.46;96730.34;5098240;28;19920;-64
2024/02/12 11:08:30;;;;;;;;;;;;;;;9.06;69.13;96728.56;5091131;28;19920;-57
2024/02/12 11:11:19;;;;;;;;;;;;;;;9.02;69.41;96729.56;5092563;28;19924;-56
2024/02/12 11:14:08;;;;;;;;;;;;;;;9.08;70.37;96739.06;5094293;28;20027;-57
2024/02/12 11:16:56;;;;;;;;;;;;;;;9.04;69.57;96746.28;5089620;28;19920;-56
2024/02/12 11:19:48;;;;;;;;;;;;;;;9.02;69.54;96738.47;5093044;28;20003;-58
2024/02/12 11:22:36;;;;;;;;;;;;;;;8.97;69.23;96737.88;5093878;28;19920;-57
2024/02/12 11:25:26;;;;;;;;;;;;;;;8.97;68.78;96752.22;5091704;28;19923;-57
2024/02/12 11:28:17;;;;;;;;;;;;;;;9.03;69.40;96759.03;5089165;28;20062;-57
2024/02/12 11:31:09;;;;;;;;;;;;;;;9.14;69.16;96762.94;5082367;28;19947;-57
2024/02/12 11:33:58;;;;;;;;;;;;;;;9.08;69.39;96766.16;5099029;27;19988;-58
2024/02/12 11:36:56;;;;;;;;;;;;;;;9.20;69.25;96763.53;5088582;28;19920;-57
2024/02/12 11:39:44;;;;;;;;;;;;;;;9.22;68.98;96766.72;5092597;28;19924;-57
2024/02/12 11:42:34;;;;;;;;;;;;;;;9.22;68.38;96766.72;5087427;28;20023;-58
2024/02/12 11:45:25;;;;;;;;;;;;;;;9.25;68.69;96774.16;5094735;28;19928;-57
2024/02/12 11:48:18;;;;;;;;;;;;;;;9.28;68.96;96776.22;5088333;28;19959;-56
2024/02/12 11:51:07;;;;;;;;;;;;;;;9.30;68.74;96779.41;5086723;28;19932;-57
2024/02/12 11:53:55;;;;;;;;;;;;;;;9.21;69.25;96786.78;5085267;28;20007;-57
2024/02/12 11:56:43;;;;;;;;;;;;;;;9.19;69.86;96776.28;5089280;28;20016;-57
2024/02/12 11:59:33;;;;;;;;;;;;;;;9.16;69.82;96776.13;5097039;28;19944;-57
2024/02/12 12:02:21;;;;;;;;;;;;;;;9.25;70.29;96776.09;5092651;28;20381;-57
2024/02/12 12:05:10;;;;;;;;;;;;;;;9.31;70.09;96775.56;5093434;28;19920;-57
2024/02/12 12:08:01;;;;;;;;;;;;;;;9.39;70.26;96772.00;5095016;28;19924;-57
2024/02/12 12:10:49;;;;;;;;;;;;;;;9.37;68.82;96784.28;5092057;28;19971;-57
2024/02/12 12:13:37;;;;;;;;;;;;;;;9.37;69.12;96785.06;5098857;28;19928;-57
2024/02/12 12:16:28;;;;;;;;;;;;;;;9.41;69.30;96796.06;5091582;28;19924;-57
2024/02/12 12:19:16;;;;;;;;;;;;;;;9.44;68.23;96793.50;5092457;28;19938;-57
2024/02/12 12:22:06;;;;;;;;;;;;;;;9.43;68.62;96782.97;5094137;28;19926;-58
2024/02/12 12:24:54;;;;;;;;;;;;;;;9.42;68.32;96793.00;5098173;28;20253;-56
2024/02/12 12:27:42;;;;;;;;;;;;;;;9.38;68.21;96794.81;5092589;28;20571;-56
2024/02/12 12:30:32;;;;;;;;;;;;;;;9.53;68.08;96793.41;5092215;28;19919;-57
2024/02/12 12:33:22;;;;;;;;;;;;;;;9.58;67.97;96795.91;5085950;28;19930;-56
2024/02/12 12:36:10;;;;;;;;;;;;;;;9.61;67.60;96797.97;5085845;28;19927;-57
2024/02/12 12:38:58;;;;;;;;;;;;;;;9.61;67.91;96800.69;5094729;28;19927;-56
2024/02/12 12:41:47;;;;;;;;;;;;;;;9.66;67.17;96803.19;5085491;28;19920;-56
2024/02/12 12:44:36;;;;;;;;;;;;;;;9.63;67.36;96797.63;5083064;28;19930;-56
2024/02/12 12:47:24;;;;;;;;;;;;;;;9.66;67.03;96796.97;5081372;28;19920;-56
2024/02/12 12:50:14;;;;;;;;;;;;;;;9.70;67.43;96803.34;5089785;28;19924;-56
2024/02/12 12:53:03;;;;;;;;;;;;;;;9.84;67.07;96805.75;5092740;28;19920;-57
2024/02/12 12:55:53;;;;;;;;;;;;;;;9.76;66.74;96806.63;5096404;28;19920;-56
2024/02/12 12:58:41;;;;;;;;;;;;;;;9.77;66.97;96798.16;5084021;28;20377;-56
2024/02/12 13:01:31;;;;;;;;;;;;;;;9.81;66.92;96796.38;5086061;28;20361;-58
2024/02/12 13:04:19;;;;;;;;;;;;;;;9.87;66.85;96792.31;5091488;28;19975;-57
2024/02/12 13:07:12;;;;;;;;;;;;;;;10.04;66.80;96796.00;5079543;28;19924;-57
2024/02/12 13:10:03;;;;;;;;;;;;;;;10.02;65.79;96793.63;5095958;28;19920;-57
2024/02/12 13:12:52;;;;;;;;;;;;;;;9.97;66.61;96789.19;5087105;28;19927;-57
2024/02/12 13:15:41;;;;;;;;;;;;;;;9.98;66.11;96798.91;5082736;28;19924;-58
2024/02/12 13:18:30;;;;;;;;;;;;;;;9.96;66.67;96803.91;5085061;28;20344;-59
2024/02/12 13:21:20;;;;;;;;;;;;;;;9.95;66.29;96799.56;5083755;28;19920;-59
2024/02/12 13:24:10;;;;;;;;;;;;;;;9.94;66.34;96798.00;5082538;28;20262;-58
2024/02/12 13:26:59;;;;;;;;;;;;;;;9.86;66.94;96796.16;5089176;28;20009;-58
2024/02/12 13:29:47;;;;;;;;;;;;;;;9.90;66.16;96812.56;5090828;28;19935;-57
2024/02/12 13:32:36;;;;;;;;;;;;;;;9.80;66.35;96805.63;5088840;28;19934;-58
2024/02/12 13:35:24;;;;;;;;;;;;;;;9.75;66.70;96805.84;5071994;28;20018;-58
2024/02/12 13:38:12;;;;;;;;;;;;;;;9.85;66.35;96810.03;5094693;28;19926;-58
2024/02/12 13:41:05;;;;;;;;;;;;;;;9.90;66.34;96816.06;5094352;28;19923;-59
2024/02/12 13:43:53;;;;;;;;;;;;;;;9.89;66.40;96810.97;5087648;28;20017;-58
2024/02/12 13:46:42;;;;;;;;;;;;;;;9.88;65.52;96821.03;5089192;28;19927;-58
2024/02/12 13:49:30;;;;;;;;;;;;;;;9.94;65.66;96825.13;5085069;28;19920;-58
2024/02/12 13:52:18;;;;;;;;;;;;;;;10.01;65.04;96823.78;5073116;28;19924;-58
2024/02/12 13:55:10;;;;;;;;;;;;;;;9.85;63.55;96831.75;5096962;28;19943;-58
2024/02/12 13:57:59;;;;;;;;;;;;;;;9.88;63.59;96837.31;5089651;28;20003;-58
2024/02/12 14:00:49;;;;;;;;;;;;;;;9.81;64.16;96837.06;5082519;28;19988;-57
2024/02/12 14:03:51;;;;;;;;;;;;;;;9.72;63.37;96847.19;5083095;28;19950;-58
2024/02/12 14:06:39;;;;;;;;;;;;;;;9.66;63.73;96848.50;5088266;28;20371;-57
2024/02/12 14:09:27;;;;;;;;;;;;;;;9.72;63.38;96849.88;5093486;28;19924;-57
2024/02/12 14:12:15;;;;;;;;;;;;;;;9.74;63.13;96858.47;5097681;28;19920;-58
2024/02/12 14:15:08;;;;;;;;;;;;;;;9.80;63.94;96861.78;5095949;28;19927;-58
2024/02/12 14:18:04;;;;;;;;;;;;;;;9.82;63.30;96863.06;5073829;28;20368;-57
2024/02/12 14:20:53;;;;;;;;;;;;;;;9.76;63.51;96867.09;5085653;28;19924;-57
2024/02/12 14:23:42;;;;;;;;;;;;;;;9.82;63.46;96871.19;5088751;28;19919;-57
2024/02/12 14:26:31;;;;;;;;;;;;;;;9.83;62.80;96872.78;5089975;28;20276;-57
2024/02/12 14:29:20;;;;;;;;;;;;;;;9.72;63.86;96871.59;5083312;28;20010;-58
2024/02/12 14:32:09;;;;;;;;;;;;;;;9.79;64.13;96879.19;5083769;28;19932;-57
2024/02/12 14:35:23;;;;;;;;;;;;;;;9.83;63.88;96877.41;5088367;28;20002;-58
2024/02/12 14:38:11;;;;;;;;;;;;;;;9.89;64.08;96885.00;5085503;28;19963;-57
2024/02/12 14:41:02;;;;;;;;;;;;;;;9.89;64.07;96893.16;5092162;28;20365;-58
2024/02/12 14:43:50;;;;;;;;;;;;;;;9.83;63.71;96893.69;5089595;28;19943;-57
2024/02/12 14:46:38;;;;;;;;;;;;;;;9.93;63.63;96902.22;5089162;28;19920;-57
2024/02/12 14:49:28;;;;;;;;;;;;;;;9.82;63.25;96905.66;5096972;28;19972;-58
2024/02/12 14:52:21;;;;;;;;;;;;;;;9.79;63.94;96898.97;5098919;28;19955;-57
2024/02/12 14:55:11;;;;;;;;;;;;;;;9.82;62.30;96906.44;5080995;28;19924;-57
2024/02/12 14:57:59;;;;;;;;;;;;;;;9.83;62.57;96913.47;5091453;28;20319;-58
2024/02/12 15:00:47;;;;;;;;;;;;;;;9.92;62.01;96925.06;5095630;27;19920;-58
2024/02/12 15:03:35;;;;;;;;;;;;;;;9.94;62.26;96924.72;5093031;28;19947;-57
2024/02/12 15:06:25;;;;;;;;;;;;;;;9.91;62.16;96928.91;5083913;28;20277;-58
2024/02/12 15:09:13;;;;;;;;;;;;;;;9.86;63.00;96928.31;5080403;28;19928;-58
2024/02/12 15:12:01;;;;;;;;;;;;;;;9.80;63.48;96933.13;5087994;28;19920;-58